createdAt,value
2022-10-27T00:01:02.798Z,7.53
2022-10-27T00:03:30.621Z,8.13
2022-10-27T00:05:58.576Z,8.90
2022-10-27T00:08:26.602Z,10.43
2022-10-27T00:10:58.647Z,9.80
2022-10-27T00:13:27.085Z,8.10
2022-10-27T00:15:59.153Z,11.60
2022-10-27T00:18:28.916Z,7.10
2022-10-27T00:21:01.249Z,7.73
2022-10-27T00:23:29.420Z,9.57
2022-10-27T00:25:57.789Z,9.20
2022-10-27T00:28:26.203Z,10.67
2022-10-27T00:30:59.906Z,10.63
2022-10-27T00:33:29.835Z,8.67
2022-10-27T00:35:57.819Z,10.00
2022-10-27T00:38:25.911Z,8.70
2022-10-27T00:40:53.792Z,10.43
2022-10-27T00:43:29.623Z,10.17
2022-10-27T00:46:02.605Z,9.97
2022-10-27T00:48:35.055Z,10.77
2022-10-27T00:51:04.880Z,9.60
2022-10-27T00:53:34.192Z,9.57
2022-10-27T00:56:02.865Z,8.13
2022-10-27T00:58:31.544Z,9.80
2022-10-27T01:00:59.603Z,13.07
2022-10-27T01:03:27.924Z,8.17
2022-10-27T01:05:59.168Z,8.40
2022-10-27T01:08:28.260Z,9.53
2022-10-27T01:10:56.135Z,8.63
2022-10-27T01:13:24.978Z,7.67
2022-10-27T01:16:04.212Z,7.30
2022-10-27T01:18:40.830Z,8.70
2022-10-27T01:21:39.895Z,9.37
2022-10-27T01:24:35.191Z,8.13
2022-10-27T01:27:06.369Z,7.70
2022-10-27T01:29:51.646Z,11.97
2022-10-27T01:32:33.945Z,8.87
2022-10-27T01:35:08.123Z,9.80
2022-10-27T01:37:42.159Z,9.57
2022-10-27T01:40:17.533Z,9.50
2022-10-27T01:42:50.741Z,9.80
2022-10-27T01:45:23.842Z,9.10
2022-10-27T01:47:55.025Z,11.07
2022-10-27T01:50:36.062Z,8.80
2022-10-27T01:53:17.334Z,9.80
2022-10-27T01:55:55.141Z,8.17
2022-10-27T01:58:42.383Z,9.40
2022-10-27T02:01:23.686Z,9.83
2022-10-27T02:04:00.990Z,8.70
2022-10-27T02:06:35.967Z,11.83
2022-10-27T02:09:10.804Z,9.43
2022-10-27T02:11:41.577Z,8.60
2022-10-27T02:14:10.273Z,11.23
2022-10-27T02:16:42.022Z,9.50
2022-10-27T02:19:16.853Z,12.20
2022-10-27T02:21:48.207Z,9.73
2022-10-27T02:24:16.945Z,10.73
2022-10-27T02:26:50.761Z,8.50
2022-10-27T02:29:24.007Z,8.60
2022-10-27T02:31:56.159Z,9.07
2022-10-27T02:34:27.544Z,11.20
2022-10-27T02:36:55.582Z,8.93
2022-10-27T02:39:23.443Z,12.23
2022-10-27T02:41:51.515Z,9.37
2022-10-27T02:44:19.484Z,10.30
2022-10-27T02:46:49.396Z,10.63
2022-10-27T02:49:20.824Z,9.00
2022-10-27T02:51:50.034Z,7.47
2022-10-27T02:54:17.933Z,12.73
2022-10-27T02:56:46.093Z,9.27
2022-10-27T02:59:13.998Z,9.57
2022-10-27T03:01:41.988Z,11.50
2022-10-27T03:04:10.051Z,10.57
2022-10-27T03:06:37.902Z,8.90
2022-10-27T03:09:07.171Z,9.60
2022-10-27T03:11:35.279Z,11.67
2022-10-27T03:14:03.167Z,13.20
2022-10-27T03:16:31.041Z,8.70
2022-10-27T03:18:59.034Z,10.10
2022-10-27T03:21:26.917Z,9.27
2022-10-27T03:23:54.740Z,8.13
2022-10-27T03:26:24.270Z,9.70
2022-10-27T03:28:52.114Z,12.10
2022-10-27T03:31:20.037Z,10.80
2022-10-27T03:33:48.020Z,8.10
2022-10-27T03:36:15.921Z,9.83
2022-10-27T03:38:43.776Z,8.40
2022-10-27T03:41:11.710Z,8.17
2022-10-27T03:43:40.956Z,9.93
2022-10-27T03:46:11.045Z,8.23
2022-10-27T03:48:38.904Z,8.60
2022-10-27T03:51:06.919Z,10.03
2022-10-27T03:53:34.853Z,7.77
2022-10-27T03:56:02.782Z,10.53
2022-10-27T03:58:30.657Z,10.60
2022-10-27T04:01:03.736Z,9.10
2022-10-27T04:03:31.670Z,8.50
2022-10-27T04:05:59.562Z,7.10
2022-10-27T04:08:27.685Z,7.80
2022-10-27T04:10:55.610Z,12.03
2022-10-27T04:13:26.748Z,11.37
2022-10-27T04:16:02.547Z,13.30
2022-10-27T04:18:30.575Z,11.07
2022-10-27T04:21:02.812Z,10.87
2022-10-27T04:23:30.973Z,8.37
2022-10-27T04:25:59.249Z,8.33
2022-10-27T04:28:27.334Z,9.00
2022-10-27T04:30:55.173Z,9.20
2022-10-27T04:33:28.041Z,10.20
2022-10-27T04:35:57.527Z,8.30
2022-10-27T04:38:25.468Z,9.67
2022-10-27T04:40:53.412Z,10.53
2022-10-27T04:43:22.024Z,8.87
2022-10-27T04:45:49.890Z,8.57
2022-10-27T04:48:17.831Z,10.50
2022-10-27T04:50:47.214Z,11.80
2022-10-27T04:53:15.119Z,12.23
2022-10-27T04:55:43.155Z,13.13
2022-10-27T04:58:11.155Z,7.97
2022-10-27T05:00:39.149Z,10.83
2022-10-27T05:03:07.104Z,8.33
2022-10-27T05:05:35.196Z,10.30
2022-10-27T05:08:05.392Z,11.27
2022-10-27T05:10:35.460Z,11.27
2022-10-27T05:13:03.522Z,12.03
2022-10-27T05:15:31.582Z,9.73
2022-10-27T05:17:59.536Z,11.23
2022-10-27T05:20:27.437Z,12.47
2022-10-27T05:22:55.450Z,11.60
2022-10-27T05:25:24.788Z,12.43
2022-10-27T05:27:52.822Z,13.27
2022-10-27T05:30:20.871Z,11.47
2022-10-27T05:32:50.558Z,14.83
2022-10-27T05:35:18.693Z,14.00
2022-10-27T05:37:47.115Z,11.83
2022-10-27T05:40:15.345Z,14.30
2022-10-27T05:42:52.394Z,11.13
2022-10-27T05:45:21.892Z,10.17
2022-10-27T05:47:49.797Z,11.40
2022-10-27T05:50:19.077Z,13.03
2022-10-27T05:52:48.327Z,10.47
2022-10-27T05:55:16.510Z,11.43
2022-10-27T05:57:44.377Z,9.57
2022-10-27T06:00:15.651Z,12.33
2022-10-27T06:02:45.433Z,13.03
2022-10-27T06:05:13.444Z,11.97
2022-10-27T06:07:41.539Z,11.47
2022-10-27T06:10:10.521Z,14.80
2022-10-27T06:12:38.358Z,13.13
2022-10-27T06:15:09.380Z,13.03
2022-10-27T06:17:38.602Z,10.37
2022-10-27T06:20:07.456Z,12.93
2022-10-27T06:22:35.724Z,10.07
2022-10-27T06:25:03.527Z,10.97
2022-10-27T06:27:32.007Z,10.37
2022-10-27T06:29:59.949Z,12.00
2022-10-27T06:32:27.817Z,11.33
2022-10-27T06:34:57.181Z,12.20
2022-10-27T06:37:25.163Z,14.10
2022-10-27T06:39:55.801Z,11.20
2022-10-27T06:42:24.803Z,13.20
2022-10-27T06:44:52.932Z,15.13
2022-10-27T06:47:20.802Z,15.73
2022-10-27T06:49:48.658Z,15.57
2022-10-27T06:52:18.035Z,17.97
2022-10-27T06:54:45.895Z,13.13
2022-10-27T06:57:14.167Z,17.30
2022-10-27T06:59:42.185Z,14.63
2022-10-27T07:02:12.613Z,14.23
2022-10-27T07:04:40.603Z,14.43
2022-10-27T07:07:08.463Z,11.43
2022-10-27T07:09:37.657Z,11.20
2022-10-27T07:12:05.760Z,11.20
2022-10-27T07:14:33.632Z,13.97
2022-10-27T07:17:01.549Z,12.73
2022-10-27T07:19:29.462Z,14.47
2022-10-27T07:21:57.512Z,11.83
2022-10-27T07:24:25.662Z,11.17
2022-10-27T07:26:54.925Z,11.10
2022-10-27T07:29:22.899Z,11.77
2022-10-27T07:31:50.793Z,14.60
2022-10-27T07:34:18.625Z,14.03
2022-10-27T07:36:47.100Z,14.00
2022-10-27T07:39:14.906Z,13.93
2022-10-27T07:41:42.725Z,11.73
2022-10-27T07:44:12.611Z,13.60
2022-10-27T07:46:40.572Z,15.37
2022-10-27T07:49:08.541Z,10.77
2022-10-27T07:51:36.721Z,13.93
2022-10-27T07:54:04.774Z,11.90
2022-10-27T07:56:33.469Z,13.33
2022-10-27T07:59:01.597Z,13.63
2022-10-27T08:01:30.981Z,12.23
2022-10-27T08:03:59.004Z,14.80
2022-10-27T08:06:27.136Z,12.57
2022-10-27T08:08:55.041Z,13.87
2022-10-27T08:11:23.546Z,9.97
2022-10-27T08:13:52.430Z,13.27
2022-10-27T08:16:20.436Z,11.83
2022-10-27T08:18:52.692Z,10.93
2022-10-27T08:21:20.648Z,16.63
2022-10-27T08:23:48.518Z,12.23
2022-10-27T08:26:16.378Z,10.90
2022-10-27T08:28:44.343Z,16.77
2022-10-27T08:31:12.275Z,10.83
2022-10-27T08:33:40.180Z,12.83
2022-10-27T08:36:11.716Z,12.23
2022-10-27T08:38:39.693Z,12.60
2022-10-27T08:41:24.037Z,13.40
2022-10-27T08:44:14.741Z,8.27
2022-10-27T08:46:46.316Z,10.53
2022-10-27T08:49:30.164Z,11.43
2022-10-27T08:52:06.286Z,11.80
2022-10-27T08:54:34.373Z,14.60
2022-10-27T08:57:04.469Z,10.83
2022-10-27T08:59:35.023Z,12.03
2022-10-27T09:02:18.003Z,10.77
2022-10-27T09:05:00.134Z,9.60
2022-10-27T09:07:37.835Z,13.50
2022-10-27T09:10:16.668Z,10.07
2022-10-27T09:12:59.002Z,11.97
2022-10-27T09:15:43.387Z,11.77
2022-10-27T09:18:21.954Z,9.63
2022-10-27T09:20:54.939Z,9.93
2022-10-27T09:23:31.825Z,9.20
2022-10-27T09:26:00.795Z,17.20
2022-10-27T09:28:35.820Z,12.50
2022-10-27T09:31:06.172Z,13.93
2022-10-27T09:33:36.685Z,14.83
2022-10-27T09:36:14.523Z,14.17
2022-10-27T09:38:43.829Z,16.13
2022-10-27T09:41:11.738Z,13.80
2022-10-27T09:43:39.773Z,11.20
2022-10-27T09:46:13.175Z,13.30
2022-10-27T09:48:41.586Z,27.40
2022-10-27T09:51:16.300Z,37.07
2022-10-27T09:53:48.288Z,18.57
2022-10-27T09:56:21.205Z,14.07
2022-10-27T09:58:57.254Z,12.63
2022-10-27T10:01:26.950Z,13.57
2022-10-27T10:03:56.878Z,9.30
2022-10-27T10:06:27.514Z,8.67
2022-10-27T10:08:56.810Z,11.63
2022-10-27T10:11:25.350Z,12.73
2022-10-27T10:14:00.476Z,12.53
2022-10-27T10:16:29.308Z,9.85
2022-10-27T10:19:03.793Z,14.03
2022-10-27T10:21:47.192Z,7.30
2022-10-27T10:24:20.667Z,8.50
2022-10-27T10:26:51.293Z,9.40
2022-10-27T10:29:28.445Z,10.37
2022-10-27T10:32:13.967Z,17.33
2022-10-27T10:34:44.274Z,9.98
2022-10-27T10:37:38.469Z,10.90
2022-10-27T10:40:27.500Z,11.05
2022-10-27T10:43:07.463Z,9.52
2022-10-27T10:45:37.287Z,8.33
2022-10-27T10:48:09.475Z,11.15
2022-10-27T10:50:47.271Z,10.45
2022-10-27T10:53:30.822Z,7.40
2022-10-27T10:56:05.829Z,11.73
2022-10-27T10:58:37.083Z,10.17
2022-10-27T11:01:07.780Z,11.20
2022-10-27T11:03:38.239Z,11.90
2022-10-27T11:06:16.457Z,10.65
2022-10-27T11:08:45.222Z,9.63
2022-10-27T11:11:20.790Z,7.78
2022-10-27T11:13:53.680Z,9.93
2022-10-27T11:16:22.351Z,8.27
2022-10-27T11:18:53.125Z,7.30
2022-10-27T11:21:32.025Z,10.37
2022-10-27T11:24:03.833Z,7.57
2022-10-27T11:26:37.650Z,10.68
2022-10-27T11:29:15.856Z,8.98
2022-10-27T11:31:51.993Z,11.07
2022-10-27T11:34:28.080Z,10.53
2022-10-27T11:37:02.746Z,10.95
2022-10-27T11:39:33.170Z,9.93
2022-10-27T11:42:11.295Z,11.18
2022-10-27T11:44:50.362Z,11.70
2022-10-27T11:47:24.934Z,9.02
2022-10-27T11:49:58.826Z,7.03
2022-10-27T11:52:35.118Z,8.10
2022-10-27T11:55:05.773Z,8.75
2022-10-27T11:57:42.630Z,10.43
2022-10-27T12:00:19.895Z,13.98
2022-10-27T12:03:16.190Z,15.20
2022-10-27T12:05:50.486Z,26.48
2022-10-27T12:08:33.202Z,15.20
2022-10-27T12:11:16.409Z,30.90
2022-10-27T12:13:54.755Z,18.15
2022-10-27T12:16:28.709Z,14.32
2022-10-27T12:18:59.988Z,11.35
2022-10-27T12:21:31.740Z,12.02
2022-10-27T12:24:05.678Z,9.00
2022-10-27T12:26:39.229Z,17.55
2022-10-27T12:29:10.030Z,10.52
2022-10-27T12:31:43.423Z,16.70
2022-10-27T12:34:16.473Z,10.75
2022-10-27T12:36:51.989Z,12.02
2022-10-27T12:39:26.716Z,12.52
2022-10-27T12:42:05.297Z,15.00
2022-10-27T12:44:43.858Z,16.80
2022-10-27T12:47:42.379Z,9.60
2022-10-27T12:50:22.970Z,10.95
2022-10-27T12:52:59.610Z,19.92
2022-10-27T12:55:46.493Z,19.33
2022-10-27T12:58:23.555Z,14.75
2022-10-27T13:00:58.352Z,16.83
2022-10-27T13:04:00.098Z,16.02
2022-10-27T13:06:41.293Z,11.52
2022-10-27T13:09:38.042Z,9.27
2022-10-27T13:12:29.498Z,11.65
2022-10-27T13:15:32.625Z,9.43
2022-10-27T13:18:13.423Z,6.50
2022-10-27T13:20:55.596Z,9.35
2022-10-27T13:23:29.993Z,12.50
2022-10-27T13:26:01.025Z,7.22
2022-10-27T13:28:36.403Z,9.75
2022-10-27T13:31:12.217Z,6.07
2022-10-27T13:33:59.615Z,10.00
2022-10-27T13:36:27.901Z,10.00
2022-10-27T13:39:40.723Z,5.43
2022-10-27T13:42:17.016Z,9.60
2022-10-27T13:44:45.024Z,6.63
2022-10-27T13:47:20.723Z,8.40
2022-10-27T13:50:02.657Z,8.63
2022-10-27T13:52:33.366Z,10.38
2022-10-27T13:55:03.653Z,7.60
2022-10-27T13:58:14.987Z,8.05
2022-10-27T14:01:19.278Z,6.80
2022-10-27T14:04:03.195Z,16.60
2022-10-27T14:06:36.385Z,7.20
2022-10-27T14:09:23.756Z,7.00
2022-10-27T14:11:54.462Z,9.13
2022-10-27T14:14:27.506Z,7.57
2022-10-27T14:16:56.481Z,17.27
2022-10-27T14:19:28.026Z,8.85
2022-10-27T14:21:59.236Z,6.05
2022-10-27T14:24:31.564Z,9.40
2022-10-27T14:27:01.270Z,6.65
2022-10-27T14:29:31.444Z,6.13
2022-10-27T14:32:14.759Z,6.60
2022-10-27T14:34:42.632Z,5.30
2022-10-27T14:37:20.685Z,5.47
2022-10-27T14:39:52.697Z,6.47
2022-10-27T14:42:27.071Z,6.78
2022-10-27T14:45:01.432Z,10.07
2022-10-27T14:47:30.702Z,8.68
2022-10-27T14:50:02.876Z,6.35
2022-10-27T14:52:35.750Z,6.38
2022-10-27T14:55:04.248Z,10.88
2022-10-27T14:57:33.917Z,8.35
2022-10-27T15:00:02.408Z,8.85
2022-10-27T15:02:31.159Z,7.13
2022-10-27T15:05:15.454Z,8.18
2022-10-27T15:07:47.720Z,7.32
2022-10-27T15:10:19.629Z,11.00
2022-10-27T15:12:54.755Z,7.30
2022-10-27T15:15:24.874Z,6.53
2022-10-27T15:17:53.123Z,7.18
2022-10-27T15:20:22.316Z,8.30
2022-10-27T15:22:54.009Z,7.10
2022-10-27T15:25:23.155Z,9.68
2022-10-27T15:27:51.222Z,8.05
2022-10-27T15:30:21.547Z,7.20
2022-10-27T15:32:49.593Z,5.68
2022-10-27T15:35:32.387Z,7.30
2022-10-27T15:38:02.759Z,7.82
2022-10-27T15:40:37.644Z,10.43
2022-10-27T15:43:22.690Z,8.75
2022-10-27T15:45:52.129Z,6.90
2022-10-27T15:48:33.842Z,10.50
2022-10-27T15:51:04.379Z,8.45
2022-10-27T15:53:36.499Z,5.93
2022-10-27T15:56:06.981Z,4.53
2022-10-27T15:58:36.994Z,7.47
2022-10-27T16:01:09.004Z,6.95
2022-10-27T16:03:41.476Z,7.72
2022-10-27T16:06:24.047Z,7.80
2022-10-27T16:08:54.273Z,6.93
2022-10-27T16:11:23.890Z,6.07
2022-10-27T16:13:55.445Z,7.35
2022-10-27T16:16:24.422Z,7.57
2022-10-27T16:18:52.663Z,7.93
2022-10-27T16:21:30.010Z,7.50
2022-10-27T16:24:06.836Z,8.47
2022-10-27T16:26:34.904Z,6.10
2022-10-27T16:29:02.966Z,6.63
2022-10-27T16:31:30.987Z,11.03
2022-10-27T16:33:59.466Z,6.70
2022-10-27T16:36:27.429Z,9.97
2022-10-27T16:38:55.276Z,7.27
2022-10-27T16:41:28.749Z,7.82
2022-10-27T16:43:56.938Z,7.17
2022-10-27T16:46:25.080Z,8.70
2022-10-27T16:48:53.223Z,8.52
2022-10-27T16:51:21.159Z,7.55
2022-10-27T16:53:50.214Z,7.67
2022-10-27T16:56:18.307Z,9.57
2022-10-27T16:58:47.970Z,9.03
2022-10-27T17:01:18.175Z,6.73
2022-10-27T17:03:46.473Z,7.00
2022-10-27T17:06:17.002Z,8.00
2022-10-27T17:08:45.110Z,8.75
2022-10-27T17:11:14.990Z,10.40
2022-10-27T17:13:43.386Z,9.80
2022-10-27T17:16:14.782Z,9.17
2022-10-27T17:18:43.598Z,11.10
2022-10-27T17:21:13.081Z,8.40
2022-10-27T17:23:42.529Z,12.20
2022-10-27T17:26:12.172Z,8.70
2022-10-27T17:28:41.500Z,8.70
2022-10-27T17:31:13.611Z,6.93
2022-10-27T17:33:42.396Z,8.47
2022-10-27T17:38:41.443Z,11.60
2022-10-27T17:41:11.971Z,13.03
2022-10-27T17:43:39.942Z,12.43
2022-10-27T17:46:11.149Z,12.27
2022-10-27T17:48:42.118Z,9.97
2022-10-27T17:51:12.246Z,10.87
2022-10-27T17:53:40.581Z,10.97
2022-10-27T17:56:10.609Z,10.37
2022-10-27T17:58:40.289Z,5.73
2022-10-27T18:01:10.638Z,9.10
2022-10-27T18:03:41.437Z,8.53
2022-10-27T18:06:11.421Z,10.17
2022-10-27T18:08:39.829Z,6.50
2022-10-27T18:11:09.922Z,6.47
2022-10-27T18:13:42.496Z,10.43
2022-10-27T18:16:12.111Z,9.90
2022-10-27T18:18:42.218Z,6.73
2022-10-27T18:21:11.101Z,8.00
2022-10-27T18:23:39.045Z,8.43
2022-10-27T18:26:08.524Z,7.40
2022-10-27T18:31:07.541Z,7.83
2022-10-27T18:33:35.890Z,5.67
2022-10-27T18:36:10.091Z,5.47
2022-10-27T18:38:38.876Z,6.93
2022-10-27T18:41:08.690Z,9.40
2022-10-27T18:43:36.938Z,8.90
2022-10-27T18:46:06.604Z,5.77
2022-10-27T18:48:35.769Z,6.80
2022-10-27T18:51:06.088Z,6.20
2022-10-27T18:53:36.334Z,7.43
2022-10-27T18:56:06.729Z,5.63
2022-10-27T18:58:35.940Z,8.33
2022-10-27T19:01:04.753Z,7.45
2022-10-27T19:03:33.152Z,6.33
2022-10-27T19:06:02.098Z,6.10
2022-10-27T19:08:30.432Z,5.43
2022-10-27T19:11:05.062Z,8.10
2022-10-27T19:13:33.184Z,6.83
2022-10-27T19:16:02.225Z,6.73
2022-10-27T19:18:30.716Z,6.33
2022-10-27T19:20:59.557Z,6.80
2022-10-27T19:23:28.089Z,8.63
2022-10-27T19:26:06.387Z,6.20
2022-10-27T19:28:35.568Z,7.60
2022-10-27T19:31:03.965Z,6.57
2022-10-27T19:33:32.504Z,7.93
2022-10-27T19:36:05.965Z,7.43
2022-10-27T19:38:34.028Z,5.40
2022-10-27T19:41:01.882Z,6.33
2022-10-27T19:43:31.669Z,5.53
2022-10-27T19:45:59.514Z,7.97
2022-10-27T19:48:27.345Z,6.73
2022-10-27T19:50:55.959Z,6.87
2022-10-27T19:53:23.938Z,6.03
2022-10-27T19:55:51.749Z,5.63
2022-10-27T19:58:19.601Z,5.87
2022-10-27T20:00:48.972Z,9.37
2022-10-27T20:03:16.856Z,6.60
2022-10-27T20:05:53.417Z,6.80
2022-10-27T20:08:21.372Z,7.23
2022-10-27T20:10:49.405Z,8.20
2022-10-27T20:13:17.362Z,12.17
2022-10-27T20:15:45.210Z,7.73
2022-10-27T20:18:14.461Z,11.53
2022-10-27T20:20:42.332Z,8.80
2022-10-27T20:23:10.196Z,7.03
2022-10-27T20:25:38.030Z,8.10
2022-10-27T20:28:06.360Z,9.93
2022-10-27T20:30:34.339Z,6.53
2022-10-27T20:33:02.241Z,5.13
2022-10-27T20:35:31.805Z,9.13
2022-10-27T20:37:59.690Z,6.73
2022-10-27T20:40:27.552Z,7.43
2022-10-27T20:42:55.774Z,7.60
2022-10-27T20:45:23.778Z,6.33
2022-10-27T20:47:51.669Z,6.50
2022-10-27T20:50:19.847Z,8.37
2022-10-27T20:52:49.181Z,4.47
2022-10-27T20:55:17.196Z,6.10
2022-10-27T20:57:45.379Z,9.73
2022-10-27T21:00:14.591Z,6.43
2022-10-27T21:02:42.879Z,6.83
2022-10-27T21:05:11.148Z,7.63
2022-10-27T21:07:39.037Z,5.97
2022-10-27T21:10:10.485Z,5.60
2022-10-27T21:12:39.278Z,5.97
2022-10-27T21:15:07.945Z,5.57
2022-10-27T21:17:36.022Z,5.57
2022-10-27T21:20:04.410Z,7.07
2022-10-27T21:22:32.337Z,8.53
2022-10-27T21:25:00.451Z,11.23
2022-10-27T21:27:29.763Z,8.97
2022-10-27T21:29:58.041Z,8.07
2022-10-27T21:32:26.561Z,9.57
2022-10-27T21:34:54.428Z,7.03
2022-10-27T21:37:22.401Z,8.77
2022-10-27T21:39:50.405Z,10.97
2022-10-27T21:42:19.477Z,9.00
2022-10-27T21:44:48.841Z,7.00
2022-10-27T21:47:16.986Z,6.53
2022-10-27T21:49:44.815Z,9.20
2022-10-27T21:52:12.720Z,6.40
2022-10-27T21:54:40.857Z,7.77
2022-10-27T21:57:08.738Z,6.23
2022-10-27T21:59:36.676Z,9.67
2022-10-27T22:02:06.076Z,6.80
2022-10-27T22:04:33.958Z,6.77
2022-10-27T22:07:02.071Z,6.77
2022-10-27T22:09:30.028Z,8.27
2022-10-27T22:11:58.014Z,5.60
2022-10-27T22:14:30.507Z,8.50
2022-10-27T22:17:00.821Z,7.90
2022-10-27T22:19:30.296Z,7.97
2022-10-27T22:21:58.140Z,6.70
2022-10-27T22:24:26.359Z,6.10
2022-10-27T22:26:54.341Z,5.93
2022-10-27T22:29:25.077Z,6.53
2022-10-27T22:31:53.432Z,7.87
2022-10-27T22:34:21.398Z,7.60
2022-10-27T22:36:50.929Z,12.70
2022-10-27T22:39:19.062Z,8.10
2022-10-27T22:41:46.990Z,7.90
2022-10-27T22:44:14.977Z,5.83
2022-10-27T22:46:43.143Z,5.70
2022-10-27T22:49:11.213Z,5.53
2022-10-27T22:51:39.137Z,9.13
2022-10-27T22:54:08.450Z,9.53
2022-10-27T22:56:36.399Z,8.00
2022-10-27T22:59:08.506Z,6.60
2022-10-27T23:01:38.891Z,6.43
2022-10-27T23:04:08.918Z,7.43
2022-10-27T23:06:38.858Z,7.57
2022-10-27T23:09:13.115Z,9.60
2022-10-27T23:11:41.348Z,6.90
2022-10-27T23:14:11.889Z,6.00
2022-10-27T23:16:40.068Z,8.53
2022-10-27T23:19:08.159Z,8.30
2022-10-27T23:21:37.733Z,8.83
2022-10-27T23:24:06.410Z,7.67
2022-10-27T23:26:38.355Z,6.57
2022-10-27T23:29:08.088Z,8.07
2022-10-27T23:31:36.338Z,7.93
2022-10-27T23:34:06.470Z,7.97
2022-10-27T23:36:35.969Z,11.30
2022-10-27T23:39:04.851Z,5.37
2022-10-27T23:41:34.181Z,8.43
2022-10-27T23:44:03.887Z,6.80
2022-10-27T23:46:32.208Z,7.60
2022-10-27T23:49:00.192Z,6.40
2022-10-27T23:51:28.128Z,8.20
2022-10-27T23:53:56.755Z,9.77
2022-10-27T23:56:25.227Z,7.40
2022-10-27T23:58:53.209Z,8.27
